METAR Data
IDs: Format: Raw Decoded Include TAF

Data at: 0505 UTC 26 Sep 2018

KRSN 260455Z AUTO 00000KT 10SM CLR 23/22 A3006 RMK AO2 T02260220
KRSN 260435Z AUTO 00000KT 10SM CLR 23/22 A3007 RMK AO2 T02260220
KRSN 260415Z AUTO 00000KT 10SM CLR 23/22 A3007 RMK AO2 T02300221
KRSN 260355Z AUTO 00000KT 10SM CLR 23/22 A3006 RMK AO2 T02310223
KRSN 260335Z AUTO 00000KT 10SM CLR 23/23 A3006 RMK AO2 T02320225
KRSN 260315Z AUTO 00000KT 10SM CLR 23/23 A3006 RMK AO2 T02330225
KRSN 260255Z AUTO 00000KT 10SM SCT120 24/23 A3005 RMK AO2 P0001 60001 T02350225
KRSN 260235Z AUTO 00000KT 10SM SCT100 OVC120 24/23 A3005 RMK AO2 P0001 T02360225
KRSN 260215Z AUTO 00000KT 10SM RA BKN090 BKN120 24/22 A3005 RMK AO2 T02370224
KRSN 260155Z AUTO 16003KT 10SM SCT090 SCT120 24/22 A3004 RMK AO2 T02360223
KRSN 260135Z AUTO 00000KT 10SM SCT045 SCT075 BKN120 24/22 A3004 RMK AO2 LTG DSNT E T02350223
KRSN 260115Z AUTO 00000KT 10SM SCT045 SCT075 BKN090 24/22 A3003 RMK AO2 T02360223
KRSN 260055Z AUTO 00000KT 10SM SCT075 24/22 A3002 RMK AO2 T02370221
KRSN 260035Z AUTO 15003KT 10SM BKN065 24/22 A3001 RMK AO2 T02390220
KRSN 260015Z AUTO 14004KT 10SM OVC065 24/22 A3001 RMK AO2 LTG DSNT E T02400220
KRSN 252355Z AUTO 14005KT 10SM SCT065 OVC070 24/22 A3001 RMK AO2 LTG DSNT E T02420218 10327 20242
KRSN 252335Z AUTO 13005KT 10SM SCT070 OVC080 25/22 A3001 RMK AO2 T02460219
KRSN 252315Z AUTO 15005KT 10SM OVC090 25/22 A3001 RMK AO2 LTG DSNT E T02460221
KRSN 252255Z AUTO 16005KT 10SM -RA SCT075 BKN090 25/23 A3001 RMK AO2 LTG DSNT E AND SE T02480225
KRSN 252235Z AUTO 15007KT 10SM SCT016 SCT080 BKN100 26/23 A3001 RMK AO2 T02550225
KRSN 252215Z AUTO 15007KT 10SM VCTS SCT008 SCT055 OVC100 25/23 A3001 RMK AO2 LTG DSNT E T02530227
KRSN 252155Z AUTO 14010KT 10SM SCT008 BKN021 OVC100 26/23 A3000 RMK AO2 T02550232
KRSN 252135Z AUTO 15010G19KT 10SM SCT018 BKN042 OVC100 27/23 A3000 RMK AO2 LTG DSNT E AND SE T02650226
KRSN 252115Z AUTO 00000KT 10SM SCT080 OVC100 29/21 A2998 RMK AO2 LTG DSNT SE T02900209
KRSN 252055Z AUTO 26004KT 10SM OVC100 30/20 A2998 RMK AO2 LTG DSNT E AND SE T02960202
KRSN 252035Z AUTO 00000KT 10SM SCT046 SCT055 OVC100 30/21 A2997 RMK AO2 LTG DSNT SE AND S T03030205
KRSN 252015Z AUTO 00000KT 10SM SCT048 SCT055 SCT120 31/19 A2998 RMK AO2 LTG DSNT S T03130194
KRSN 251955Z AUTO 18004KT 10SM SCT046 SCT060 SCT120 33/19 A2998 RMK AO2 T03250192
KRSN 251935Z AUTO 28004KT 10SM SCT044 SCT050 BKN120 32/20 A2999 RMK AO2 T03150201
KRSN 251915Z AUTO 22003KT 10SM SCT042 SCT100 SCT120 31/20 A3000 RMK AO2 T03100195
KRSN 251855Z AUTO 23006KT 10SM SCT042 BKN100 32/20 A3001 RMK AO2 T03160199
KRSN 251835Z AUTO 00000KT 10SM SCT038 SCT046 SCT100 31/20 A3002 RMK AO2 T03110200
KRSN 251815Z AUTO 19005KT 10SM SCT036 SCT044 31/21 A3003 RMK AO2 T03140206
KRSN 251755Z AUTO 00000KT 10SM BKN036 BKN043 30/21 A3003 RMK AO2 T02990208 10310 20196
KRSN 251735Z AUTO 20005KT 10SM SCT034 31/20 A3004 RMK AO2 T03090204
KRSN 251715Z AUTO 00000KT 10SM CLR 30/20 A3005 RMK AO2 T03000203
KRSN 251655Z AUTO 00000KT 10SM CLR 29/21 A3005 RMK AO2 T02940205
KRSN 251635Z AUTO 00000KT 10SM CLR 29/21 A3005 RMK AO2 T02920206
KRSN 251615Z AUTO 00000KT 10SM CLR 29/21 A3006 RMK AO2 T02870205
KRSN 251555Z AUTO 00000KT 10SM CLR 28/22 A3006 RMK AO2 T02830215
KRSN 251535Z AUTO 00000KT 10SM CLR 28/22 A3006 RMK AO2 T02760218
KRSN 251515Z AUTO 00000KT 10SM CLR 27/22 A3006 RMK AO2 T02670219
KRSN 251455Z AUTO 00000KT 10SM CLR 26/22 A3006 RMK AO2 LTG DSNT SE T02590217
KRSN 251435Z AUTO 00000KT 10SM CLR 25/22 A3006 RMK AO2 T02480216
KRSN 251415Z AUTO 00000KT 10SM CLR 24/22 A3005 RMK AO2 T02400215
KRSN 251355Z AUTO 00000KT 10SM CLR 23/21 A3005 RMK AO2 T02310212
KRSN 251335Z AUTO 00000KT 10SM SCT080 22/21 A3005 RMK AO2 T02200206
KRSN 251315Z AUTO 00000KT 10SM CLR 22/21 A3004 RMK AO2 T02150206
KRSN 251255Z AUTO 00000KT 10SM SCT080 21/20 A3004 RMK AO2 T02060200
KRSN 251235Z AUTO 00000KT 10SM SCT080 20/19 A3004 RMK AO2 T02010194
KRSN 251215Z AUTO 00000KT 3SM BR CLR 20/19 A3003 RMK AO2 T01960190
KRSN 251155Z AUTO 00000KT 3SM BR CLR 20/19 A3003 RMK AO2 T01970190 10215 20196
KRSN 251135Z AUTO 00000KT 7SM CLR 20/19 A3003 RMK AO2 T02000192
KRSN 251115Z AUTO 00000KT 4SM BR CLR 20/19 A3003 RMK AO2 T02000193
KRSN 251055Z AUTO 00000KT 7SM CLR 20/20 A3002 RMK AO2 T02030196
KRSN 251035Z AUTO 00000KT 10SM CLR 21/20 A3002 RMK AO2 T02050197
KRSN 251015Z AUTO 00000KT 10SM CLR 21/20 A3001 RMK AO2 T02060198
KRSN 250955Z AUTO 00000KT 10SM CLR 21/20 A3001 RMK AO2 T02070198
KRSN 250935Z AUTO 00000KT 10SM CLR 21/20 A3001 RMK AO2 LTG DSNT N T02070199
KRSN 250915Z AUTO 00000KT 10SM CLR 21/20 A3000 RMK AO2 T02100200
KRSN 250855Z AUTO 00000KT 10SM CLR 21/20 A3000 RMK AO2 T02080200
KRSN 250840Z AUTO 00000KT 10SM CLR 21/20 A2999 RMK AO2 T02080200
KRSN 250815Z AUTO 00000KT 10SM CLR 21/20 A2999 RMK AO2 T02120203
KRSN 250755Z AUTO 00000KT 10SM CLR 21/20 A2999 RMK AO2 T02110202
KRSN 250735Z AUTO 00000KT 10SM CLR 21/21 A2999 RMK AO2 T02130205
KRSN 250715Z AUTO 00000KT 10SM CLR 21/21 A2999 RMK AO2 T02140206
KRSN 250655Z AUTO 00000KT 10SM CLR 22/21 A2998 RMK AO2 T02150206
KRSN 250635Z AUTO 00000KT 10SM CLR 21/21 A2998 RMK AO2 T02140206
KRSN 250615Z AUTO 00000KT 10SM CLR 21/21 A2998 RMK AO2 T02120205
KRSN 250555Z AUTO 00000KT 7SM CLR 21/20 A2998 RMK AO2 T02100202 10252 20210 403010210
KRSN 250535Z AUTO 00000KT 5SM BR CLR 21/20 A2998 RMK AO2 T02110203
KRSN 250515Z AUTO 00000KT 10SM CLR 21/21 A2999 RMK AO2 T02140206
KRSN 250455Z AUTO 00000KT 10SM CLR 21/21 A2999 RMK AO2 T02140206
KRSN 250435Z AUTO 00000KT 10SM CLR 22/21 A2998 RMK AO2 T02150208
KRSN 250415Z AUTO 00000KT 10SM CLR 22/21 A2998 RMK AO2 T02160209
KRSN 250355Z AUTO 00000KT 10SM CLR 22/21 A2998 RMK AO2 T02180211
KRSN 250335Z AUTO 00000KT 10SM CLR 22/21 A2998 RMK AO2 T02200213
KRSN 250315Z AUTO 00000KT 7SM CLR 22/21 A2997 RMK AO2 T02210213
KRSN 250255Z AUTO 00000KT 7SM CLR 22/22 A2997 RMK AO2 T02220215
KRSN 250235Z AUTO 00000KT 10SM CLR 23/22 A2997 RMK AO2 T02270218
KRSN 250215Z AUTO 00000KT 10SM CLR 23/22 A2996 RMK AO2 T02300220
KRSN 250155Z AUTO 00000KT 10SM SCT050 23/22 A2995 RMK AO2 T02300222
KRSN 250135Z AUTO 00000KT 10SM BKN060 24/23 A2994 RMK AO2 T02350225
KRSN 250115Z AUTO 00000KT 10SM OVC060 24/23 A2993 RMK AO2 T02370226
KRSN 250055Z AUTO 00000KT 10SM BKN060 24/23 A2993 RMK AO2 T02400229
KRSN 250035Z AUTO 00000KT 10SM SCT060 24/23 A2993 RMK AO2 T02420228
KRSN 250015Z AUTO 00000KT 10SM SCT045 SCT060 25/23 A2993 RMK AO2 T02450230
KRSN 242355Z AUTO 00000KT 10SM SCT041 SCT047 SCT060 25/23 A2992 RMK AO2 T02530229 10301 20253
KRSN 242335Z AUTO 00000KT 10SM SCT034 BKN041 OVC060 27/23 A2992 RMK AO2 T02720228
KRSN 242315Z AUTO 00000KT 10SM SCT034 BKN047 OVC060 27/22 A2991 RMK AO2 T02720218
KRSN 242255Z AUTO 00000KT 10SM SCT027 BKN044 BKN060 28/22 A2991 RMK AO2 LTG DSNT E T02790215
KRSN 242235Z AUTO 00000KT 10SM SCT027 29/22 A2991 RMK AO2 T02890219
KRSN 242215Z AUTO 00000KT 10SM SCT060 29/22 A2991 RMK AO2 T02870219
KRSN 242155Z AUTO 00000KT 10SM OVC060 28/22 A2991 RMK AO2 LTG DSNT E AND SE T02830218
KRSN 242135Z AUTO 00000KT 10SM SCT032 OVC060 28/22 A2991 RMK AO2 T02840217
KRSN 242115Z AUTO 00000KT 10SM SCT030 BKN060 29/22 A2991 RMK AO2 T02870216
KRSN 242055Z AUTO 00000KT 10SM BKN060 29/22 A2991 RMK AO2 LTG DSNT SE T02900216
KRSN 242035Z AUTO 00000KT 10SM SCT028 BKN048 OVC060 29/22 A2991 RMK AO2 T02890218
KRSN 242015Z AUTO 00000KT 10SM SCT028 BKN048 OVC050 29/22 A2991 RMK AO2 LTG DSNT E T02920218
KRSN 241955Z AUTO 00000KT 10SM SCT031 SCT043 OVC055 30/22 A2991 RMK AO2 T02950217
KRSN 241935Z AUTO 00000KT 10SM SCT029 SCT035 BKN050 30/22 A2992 RMK AO2 T02970215
KRSN 241915Z AUTO 00000KT 10SM BKN050 30/22 A2993 RMK AO2 T02980221
KRSN 241855Z AUTO 00000KT 10SM SCT026 SCT030 BKN050 29/22 A2994 RMK AO2 T02930221
KRSN 241835Z AUTO 00000KT 10SM SCT026 SCT036 BKN045 29/22 A2995 RMK AO2 T02940220 PNO
KRSN 241815Z AUTO 00000KT 10SM SCT014 SCT019 BKN045 28/23 A2996 RMK AO2 T02790229
KRSN 241755Z AUTO 00000KT 10SM BKN013 BKN019 OVC060 27/23 A2997 RMK AO2 T02670231 10269 20230
KRSN 241735Z AUTO 00000KT 10SM SCT013 BKN027 OVC048 26/23 A2998 RMK AO2 T02640229
KRSN 241715Z AUTO 00000KT 10SM -DZ SCT013 BKN026 OVC030 26/23 A2998 RMK AO2 T02600231